sensor_id;sensor_type;location;lat;lon;timestamp;temperature;humidity
5779;DHT22;2916;49.798;10.022;2024-02-14T00:02:26;5.40;1.00
5779;DHT22;2916;49.798;10.022;2024-02-14T00:04:54;5.40;1.00
5779;DHT22;2916;49.798;10.022;2024-02-14T00:07:21;5.40;1.00
5779;DHT22;2916;49.798;10.022;2024-02-14T00:09:48;5.30;1.00
5779;DHT22;2916;49.798;10.022;2024-02-14T00:12:15;5.30;1.00
5779;DHT22;2916;49.798;10.022;2024-02-14T00:14:42;5.30;1.00
5779;DHT22;2916;49.798;10.022;2024-02-14T00:17:09;5.30;1.00
5779;DHT22;2916;49.798;10.022;2024-02-14T00:19:38;5.30;1.00
5779;DHT22;2916;49.798;10.022;2024-02-14T00:22:06;5.30;1.00
5779;DHT22;2916;49.798;10.022;2024-02-14T00:24:33;5.30;1.00
5779;DHT22;2916;49.798;10.022;2024-02-14T00:27:01;5.30;1.00
5779;DHT22;2916;49.798;10.022;2024-02-14T00:29:29;5.30;1.00
5779;DHT22;2916;49.798;10.022;2024-02-14T00:31:55;5.30;1.00
5779;DHT22;2916;49.798;10.022;2024-02-14T00:34:22;5.40;1.00
5779;DHT22;2916;49.798;10.022;2024-02-14T00:36:49;5.40;1.00
5779;DHT22;2916;49.798;10.022;2024-02-14T00:39:18;5.30;1.00
5779;DHT22;2916;49.798;10.022;2024-02-14T00:41:46;5.30;1.00
5779;DHT22;2916;49.798;10.022;2024-02-14T00:44:13;5.30;1.00
5779;DHT22;2916;49.798;10.022;2024-02-14T00:46:42;5.30;1.00
5779;DHT22;2916;49.798;10.022;2024-02-14T00:49:09;5.30;1.00
5779;DHT22;2916;49.798;10.022;2024-02-14T00:51:37;5.20;1.00
5779;DHT22;2916;49.798;10.022;2024-02-14T00:54:04;5.20;1.00
5779;DHT22;2916;49.798;10.022;2024-02-14T00:56:32;5.20;1.00
5779;DHT22;2916;49.798;10.022;2024-02-14T00:58:59;5.20;1.00
5779;DHT22;2916;49.798;10.022;2024-02-14T01:01:26;5.20;1.00
5779;DHT22;2916;49.798;10.022;2024-02-14T01:03:53;5.20;1.00
5779;DHT22;2916;49.798;10.022;2024-02-14T01:06:20;5.10;1.00
5779;DHT22;2916;49.798;10.022;2024-02-14T01:08:47;5.10;1.00
5779;DHT22;2916;49.798;10.022;2024-02-14T01:11:14;5.10;1.00
5779;DHT22;2916;49.798;10.022;2024-02-14T01:13:42;5.10;1.00
5779;DHT22;2916;49.798;10.022;2024-02-14T01:16:09;5.10;1.00
5779;DHT22;2916;49.798;10.022;2024-02-14T01:18:36;5.10;1.00
5779;DHT22;2916;49.798;10.022;2024-02-14T01:21:03;5.10;1.00
5779;DHT22;2916;49.798;10.022;2024-02-14T01:23:31;5.20;1.00
5779;DHT22;2916;49.798;10.022;2024-02-14T01:25:58;5.20;1.00
5779;DHT22;2916;49.798;10.022;2024-02-14T01:28:25;5.20;1.00
5779;DHT22;2916;49.798;10.022;2024-02-14T01:30:54;5.30;1.00
5779;DHT22;2916;49.798;10.022;2024-02-14T01:33:22;5.40;1.00
5779;DHT22;2916;49.798;10.022;2024-02-14T01:35:49;5.40;1.00
5779;DHT22;2916;49.798;10.022;2024-02-14T01:38:16;5.50;1.00
5779;DHT22;2916;49.798;10.022;2024-02-14T01:40:43;5.50;1.00
5779;DHT22;2916;49.798;10.022;2024-02-14T01:43:11;5.60;1.00
5779;DHT22;2916;49.798;10.022;2024-02-14T01:45:40;5.60;1.00
5779;DHT22;2916;49.798;10.022;2024-02-14T01:48:09;5.60;1.00
5779;DHT22;2916;49.798;10.022;2024-02-14T01:50:37;5.60;1.00
5779;DHT22;2916;49.798;10.022;2024-02-14T01:53:06;5.60;1.00
5779;DHT22;2916;49.798;10.022;2024-02-14T01:55:34;5.60;1.00
5779;DHT22;2916;49.798;10.022;2024-02-14T01:58:01;5.70;1.00
5779;DHT22;2916;49.798;10.022;2024-02-14T02:00:30;5.70;1.00
5779;DHT22;2916;49.798;10.022;2024-02-14T02:02:58;5.70;1.00
5779;DHT22;2916;49.798;10.022;2024-02-14T02:05:26;5.70;1.00
5779;DHT22;2916;49.798;10.022;2024-02-14T02:07:54;5.70;1.00
5779;DHT22;2916;49.798;10.022;2024-02-14T02:10:21;5.70;1.00
5779;DHT22;2916;49.798;10.022;2024-02-14T02:12:51;5.70;1.00
5779;DHT22;2916;49.798;10.022;2024-02-14T02:15:18;5.80;1.00
5779;DHT22;2916;49.798;10.022;2024-02-14T02:17:45;5.80;1.00
5779;DHT22;2916;49.798;10.022;2024-02-14T02:20:18;5.80;1.00
5779;DHT22;2916;49.798;10.022;2024-02-14T02:22:46;5.80;1.00
5779;DHT22;2916;49.798;10.022;2024-02-14T02:25:14;5.80;1.00
5779;DHT22;2916;49.798;10.022;2024-02-14T02:27:41;5.80;1.00
5779;DHT22;2916;49.798;10.022;2024-02-14T02:30:08;5.90;1.00
5779;DHT22;2916;49.798;10.022;2024-02-14T02:32:36;5.80;1.00
5779;DHT22;2916;49.798;10.022;2024-02-14T02:35:04;5.80;1.00
5779;DHT22;2916;49.798;10.022;2024-02-14T02:37:31;5.80;1.00
5779;DHT22;2916;49.798;10.022;2024-02-14T02:39:59;5.80;1.00
5779;DHT22;2916;49.798;10.022;2024-02-14T02:42:26;5.80;1.00
5779;DHT22;2916;49.798;10.022;2024-02-14T02:44:54;5.80;1.00
5779;DHT22;2916;49.798;10.022;2024-02-14T02:47:21;5.80;1.00
5779;DHT22;2916;49.798;10.022;2024-02-14T02:49:48;5.80;1.00
5779;DHT22;2916;49.798;10.022;2024-02-14T02:52:15;5.70;1.00
5779;DHT22;2916;49.798;10.022;2024-02-14T02:54:42;5.80;1.00
5779;DHT22;2916;49.798;10.022;2024-02-14T02:57:14;5.80;1.00
5779;DHT22;2916;49.798;10.022;2024-02-14T02:59:41;5.80;1.00
5779;DHT22;2916;49.798;10.022;2024-02-14T03:02:10;5.80;1.00
5779;DHT22;2916;49.798;10.022;2024-02-14T03:04:38;5.80;1.00
5779;DHT22;2916;49.798;10.022;2024-02-14T03:07:05;5.80;1.00
5779;DHT22;2916;49.798;10.022;2024-02-14T03:09:34;5.80;1.00
5779;DHT22;2916;49.798;10.022;2024-02-14T03:12:01;5.80;1.00
5779;DHT22;2916;49.798;10.022;2024-02-14T03:14:30;5.80;1.00
5779;DHT22;2916;49.798;10.022;2024-02-14T03:16:59;5.80;1.00
5779;DHT22;2916;49.798;10.022;2024-02-14T03:19:27;5.80;1.00
5779;DHT22;2916;49.798;10.022;2024-02-14T03:21:54;5.90;1.00
5779;DHT22;2916;49.798;10.022;2024-02-14T03:24:21;5.90;1.00
5779;DHT22;2916;49.798;10.022;2024-02-14T03:26:48;5.90;1.00
5779;DHT22;2916;49.798;10.022;2024-02-14T03:29:17;5.90;1.00
5779;DHT22;2916;49.798;10.022;2024-02-14T03:31:46;5.90;1.00
5779;DHT22;2916;49.798;10.022;2024-02-14T03:34:13;5.90;1.00
5779;DHT22;2916;49.798;10.022;2024-02-14T03:36:39;5.90;1.00
5779;DHT22;2916;49.798;10.022;2024-02-14T03:39:06;5.90;1.00
5779;DHT22;2916;49.798;10.022;2024-02-14T03:41:33;5.90;1.00
5779;DHT22;2916;49.798;10.022;2024-02-14T03:44:00;5.90;1.00
5779;DHT22;2916;49.798;10.022;2024-02-14T03:46:29;5.90;1.00
5779;DHT22;2916;49.798;10.022;2024-02-14T03:48:57;5.90;1.00
5779;DHT22;2916;49.798;10.022;2024-02-14T03:51:24;5.90;1.00
5779;DHT22;2916;49.798;10.022;2024-02-14T03:53:51;5.90;1.00
5779;DHT22;2916;49.798;10.022;2024-02-14T03:56:18;5.90;1.00
5779;DHT22;2916;49.798;10.022;2024-02-14T03:58:45;5.90;1.00
5779;DHT22;2916;49.798;10.022;2024-02-14T04:01:12;5.90;1.00
5779;DHT22;2916;49.798;10.022;2024-02-14T04:03:39;5.90;1.00
5779;DHT22;2916;49.798;10.022;2024-02-14T04:06:08;5.90;1.00
5779;DHT22;2916;49.798;10.022;2024-02-14T04:08:36;5.90;1.00
5779;DHT22;2916;49.798;10.022;2024-02-14T04:11:02;6.00;1.00
5779;DHT22;2916;49.798;10.022;2024-02-14T04:13:29;5.90;1.00
5779;DHT22;2916;49.798;10.022;2024-02-14T04:15:56;6.00;1.00
5779;DHT22;2916;49.798;10.022;2024-02-14T04:18:23;6.00;1.00
5779;DHT22;2916;49.798;10.022;2024-02-14T04:20:50;6.00;1.00
5779;DHT22;2916;49.798;10.022;2024-02-14T04:23:18;6.00;1.00
5779;DHT22;2916;49.798;10.022;2024-02-14T04:25:45;6.00;1.00
5779;DHT22;2916;49.798;10.022;2024-02-14T04:28:13;6.00;1.00
5779;DHT22;2916;49.798;10.022;2024-02-14T04:30:40;6.10;1.00
5779;DHT22;2916;49.798;10.022;2024-02-14T04:33:08;6.00;1.00
5779;DHT22;2916;49.798;10.022;2024-02-14T04:35:37;6.10;1.00
5779;DHT22;2916;49.798;10.022;2024-02-14T04:38:04;6.00;1.00
5779;DHT22;2916;49.798;10.022;2024-02-14T04:40:32;6.10;1.00
5779;DHT22;2916;49.798;10.022;2024-02-14T04:43:00;6.10;1.00
5779;DHT22;2916;49.798;10.022;2024-02-14T04:45:27;6.10;1.00
5779;DHT22;2916;49.798;10.022;2024-02-14T04:47:54;6.00;1.00
5779;DHT22;2916;49.798;10.022;2024-02-14T04:50:21;6.10;1.00
5779;DHT22;2916;49.798;10.022;2024-02-14T04:52:48;6.10;1.00
5779;DHT22;2916;49.798;10.022;2024-02-14T04:55:15;6.10;1.00
5779;DHT22;2916;49.798;10.022;2024-02-14T04:57:43;6.10;1.00
5779;DHT22;2916;49.798;10.022;2024-02-14T05:00:11;6.10;1.00
5779;DHT22;2916;49.798;10.022;2024-02-14T05:02:38;6.10;1.00
5779;DHT22;2916;49.798;10.022;2024-02-14T05:05:06;6.20;1.00
5779;DHT22;2916;49.798;10.022;2024-02-14T05:07:34;6.10;1.00
5779;DHT22;2916;49.798;10.022;2024-02-14T05:10:01;6.10;1.00
5779;DHT22;2916;49.798;10.022;2024-02-14T05:12:28;6.10;1.00
5779;DHT22;2916;49.798;10.022;2024-02-14T05:14:56;6.10;1.00
5779;DHT22;2916;49.798;10.022;2024-02-14T05:17:24;6.20;1.00
5779;DHT22;2916;49.798;10.022;2024-02-14T05:19:51;6.30;1.00
5779;DHT22;2916;49.798;10.022;2024-02-14T05:22:18;6.20;1.00
5779;DHT22;2916;49.798;10.022;2024-02-14T05:24:45;6.30;1.00
5779;DHT22;2916;49.798;10.022;2024-02-14T05:27:12;6.20;1.00
5779;DHT22;2916;49.798;10.022;2024-02-14T05:29:39;6.20;1.00
5779;DHT22;2916;49.798;10.022;2024-02-14T05:32:08;6.30;1.00
5779;DHT22;2916;49.798;10.022;2024-02-14T05:34:36;6.30;1.00
5779;DHT22;2916;49.798;10.022;2024-02-14T05:37:03;6.30;1.00
5779;DHT22;2916;49.798;10.022;2024-02-14T05:39:31;6.30;1.00
5779;DHT22;2916;49.798;10.022;2024-02-14T05:41:58;6.40;1.00
5779;DHT22;2916;49.798;10.022;2024-02-14T05:44:25;6.40;1.00
5779;DHT22;2916;49.798;10.022;2024-02-14T05:46:52;6.40;1.00
5779;DHT22;2916;49.798;10.022;2024-02-14T05:49:22;6.40;1.00
5779;DHT22;2916;49.798;10.022;2024-02-14T05:51:50;6.40;1.00
5779;DHT22;2916;49.798;10.022;2024-02-14T05:54:18;6.40;1.00
5779;DHT22;2916;49.798;10.022;2024-02-14T05:56:46;6.40;1.00
5779;DHT22;2916;49.798;10.022;2024-02-14T05:59:13;6.40;1.00
5779;DHT22;2916;49.798;10.022;2024-02-14T06:01:38;6.40;1.00
5779;DHT22;2916;49.798;10.022;2024-02-14T06:04:05;6.40;1.00
5779;DHT22;2916;49.798;10.022;2024-02-14T06:06:34;6.40;1.00
5779;DHT22;2916;49.798;10.022;2024-02-14T06:09:01;6.40;1.00
5779;DHT22;2916;49.798;10.022;2024-02-14T06:11:34;6.40;1.00
5779;DHT22;2916;49.798;10.022;2024-02-14T06:14:01;6.40;1.00
5779;DHT22;2916;49.798;10.022;2024-02-14T06:16:28;6.40;1.00
5779;DHT22;2916;49.798;10.022;2024-02-14T06:18:56;6.40;1.00
5779;DHT22;2916;49.798;10.022;2024-02-14T06:21:23;6.50;1.00
5779;DHT22;2916;49.798;10.022;2024-02-14T06:23:52;6.50;1.00
5779;DHT22;2916;49.798;10.022;2024-02-14T06:26:19;6.50;1.00
5779;DHT22;2916;49.798;10.022;2024-02-14T06:28:46;6.50;1.00
5779;DHT22;2916;49.798;10.022;2024-02-14T06:31:17;6.50;1.00
5779;DHT22;2916;49.798;10.022;2024-02-14T06:33:44;6.50;1.00
5779;DHT22;2916;49.798;10.022;2024-02-14T06:36:11;6.50;1.00
5779;DHT22;2916;49.798;10.022;2024-02-14T06:38:38;6.50;1.00
5779;DHT22;2916;49.798;10.022;2024-02-14T06:41:07;6.60;1.00
5779;DHT22;2916;49.798;10.022;2024-02-14T06:43:33;6.60;1.00
5779;DHT22;2916;49.798;10.022;2024-02-14T06:46:01;6.60;1.00
5779;DHT22;2916;49.798;10.022;2024-02-14T06:48:28;6.60;1.00
5779;DHT22;2916;49.798;10.022;2024-02-14T06:50:55;6.70;1.00
5779;DHT22;2916;49.798;10.022;2024-02-14T06:53:22;6.70;1.00
5779;DHT22;2916;49.798;10.022;2024-02-14T06:55:49;6.70;1.00
5779;DHT22;2916;49.798;10.022;2024-02-14T06:58:17;6.80;1.00
5779;DHT22;2916;49.798;10.022;2024-02-14T07:00:44;6.80;1.00
5779;DHT22;2916;49.798;10.022;2024-02-14T07:03:11;6.90;1.00
5779;DHT22;2916;49.798;10.022;2024-02-14T07:05:38;6.80;1.00
5779;DHT22;2916;49.798;10.022;2024-02-14T07:08:06;6.90;1.00
5779;DHT22;2916;49.798;10.022;2024-02-14T07:10:32;6.90;1.00
5779;DHT22;2916;49.798;10.022;2024-02-14T07:12:59;6.90;1.00
5779;DHT22;2916;49.798;10.022;2024-02-14T07:15:28;7.00;1.00
5779;DHT22;2916;49.798;10.022;2024-02-14T07:17:55;7.00;1.00
5779;DHT22;2916;49.798;10.022;2024-02-14T07:20:23;7.10;1.00
5779;DHT22;2916;49.798;10.022;2024-02-14T07:22:51;7.00;1.00
5779;DHT22;2916;49.798;10.022;2024-02-14T07:25:19;7.00;1.00
5779;DHT22;2916;49.798;10.022;2024-02-14T07:27:46;7.10;1.00
5779;DHT22;2916;49.798;10.022;2024-02-14T07:30:15;7.10;1.00
5779;DHT22;2916;49.798;10.022;2024-02-14T07:32:43;7.10;1.00
5779;DHT22;2916;49.798;10.022;2024-02-14T07:35:11;7.10;1.00
5779;DHT22;2916;49.798;10.022;2024-02-14T07:37:38;7.20;1.00
5779;DHT22;2916;49.798;10.022;2024-02-14T07:40:06;7.20;1.00
5779;DHT22;2916;49.798;10.022;2024-02-14T07:42:34;7.20;1.00
5779;DHT22;2916;49.798;10.022;2024-02-14T07:45:01;7.20;1.00
5779;DHT22;2916;49.798;10.022;2024-02-14T07:47:29;7.20;1.00
5779;DHT22;2916;49.798;10.022;2024-02-14T07:49:58;7.20;1.00
5779;DHT22;2916;49.798;10.022;2024-02-14T07:52:25;7.20;1.00
5779;DHT22;2916;49.798;10.022;2024-02-14T07:54:52;7.20;1.00
5779;DHT22;2916;49.798;10.022;2024-02-14T07:57:21;7.30;1.00
5779;DHT22;2916;49.798;10.022;2024-02-14T07:59:49;7.30;1.00
5779;DHT22;2916;49.798;10.022;2024-02-14T08:02:15;7.40;1.00
5779;DHT22;2916;49.798;10.022;2024-02-14T08:04:42;7.40;1.00
5779;DHT22;2916;49.798;10.022;2024-02-14T08:07:11;7.50;1.00
5779;DHT22;2916;49.798;10.022;2024-02-14T08:09:38;7.50;1.00
5779;DHT22;2916;49.798;10.022;2024-02-14T08:12:06;7.50;1.00
5779;DHT22;2916;49.798;10.022;2024-02-14T08:14:33;7.50;1.00
5779;DHT22;2916;49.798;10.022;2024-02-14T08:17:00;7.60;1.00
5779;DHT22;2916;49.798;10.022;2024-02-14T08:19:27;7.60;1.00
5779;DHT22;2916;49.798;10.022;2024-02-14T08:21:54;7.60;1.00
5779;DHT22;2916;49.798;10.022;2024-02-14T08:24:26;7.60;1.00
5779;DHT22;2916;49.798;10.022;2024-02-14T08:26:53;7.80;1.00
5779;DHT22;2916;49.798;10.022;2024-02-14T08:29:20;7.80;1.00
5779;DHT22;2916;49.798;10.022;2024-02-14T08:31:47;7.90;1.00
5779;DHT22;2916;49.798;10.022;2024-02-14T08:34:15;8.00;1.00
5779;DHT22;2916;49.798;10.022;2024-02-14T08:36:42;8.00;1.00
5779;DHT22;2916;49.798;10.022;2024-02-14T08:39:10;8.10;1.00
5779;DHT22;2916;49.798;10.022;2024-02-14T08:41:38;8.20;1.00
5779;DHT22;2916;49.798;10.022;2024-02-14T08:44:09;8.20;1.00
5779;DHT22;2916;49.798;10.022;2024-02-14T08:46:36;8.30;1.00
5779;DHT22;2916;49.798;10.022;2024-02-14T08:49:03;8.20;1.00
5779;DHT22;2916;49.798;10.022;2024-02-14T08:51:34;8.30;1.00
5779;DHT22;2916;49.798;10.022;2024-02-14T08:54:00;8.30;1.00
5779;DHT22;2916;49.798;10.022;2024-02-14T08:56:30;8.30;1.00
5779;DHT22;2916;49.798;10.022;2024-02-14T08:59:00;8.30;1.00
5779;DHT22;2916;49.798;10.022;2024-02-14T09:01:28;8.30;1.00
5779;DHT22;2916;49.798;10.022;2024-02-14T09:03:55;8.40;1.00
5779;DHT22;2916;49.798;10.022;2024-02-14T09:06:21;8.40;1.00
5779;DHT22;2916;49.798;10.022;2024-02-14T09:08:48;8.50;1.00
5779;DHT22;2916;49.798;10.022;2024-02-14T09:11:16;8.50;1.00
5779;DHT22;2916;49.798;10.022;2024-02-14T09:13:43;8.50;1.00
5779;DHT22;2916;49.798;10.022;2024-02-14T09:16:11;8.60;1.00
5779;DHT22;2916;49.798;10.022;2024-02-14T09:18:39;8.70;1.00
5779;DHT22;2916;49.798;10.022;2024-02-14T09:21:06;8.80;1.00
5779;DHT22;2916;49.798;10.022;2024-02-14T09:23:34;8.80;1.00
5779;DHT22;2916;49.798;10.022;2024-02-14T09:26:04;8.90;1.00
5779;DHT22;2916;49.798;10.022;2024-02-14T09:28:31;9.00;1.00
5779;DHT22;2916;49.798;10.022;2024-02-14T09:30:58;9.00;1.00
5779;DHT22;2916;49.798;10.022;2024-02-14T09:33:27;9.10;1.00
5779;DHT22;2916;49.798;10.022;2024-02-14T09:35:54;9.10;1.00
5779;DHT22;2916;49.798;10.022;2024-02-14T09:38:21;9.10;1.00
5779;DHT22;2916;49.798;10.022;2024-02-14T09:40:48;9.00;1.00
5779;DHT22;2916;49.798;10.022;2024-02-14T09:43:22;9.10;1.00
5779;DHT22;2916;49.798;10.022;2024-02-14T09:45:51;9.10;1.00
5779;DHT22;2916;49.798;10.022;2024-02-14T09:48:20;9.10;1.00
5779;DHT22;2916;49.798;10.022;2024-02-14T09:50:49;9.00;1.00
5779;DHT22;2916;49.798;10.022;2024-02-14T09:53:17;9.10;1.00
5779;DHT22;2916;49.798;10.022;2024-02-14T09:55:46;9.10;1.00
5779;DHT22;2916;49.798;10.022;2024-02-14T09:58:13;9.20;1.00
5779;DHT22;2916;49.798;10.022;2024-02-14T10:00:40;9.10;1.00
5779;DHT22;2916;49.798;10.022;2024-02-14T10:03:08;9.10;1.00
5779;DHT22;2916;49.798;10.022;2024-02-14T10:05:35;9.20;1.00
5779;DHT22;2916;49.798;10.022;2024-02-14T10:08:04;9.20;1.00
5779;DHT22;2916;49.798;10.022;2024-02-14T10:10:32;9.10;1.00
5779;DHT22;2916;49.798;10.022;2024-02-14T10:13:00;9.20;1.00
5779;DHT22;2916;49.798;10.022;2024-02-14T10:15:27;9.20;1.00
5779;DHT22;2916;49.798;10.022;2024-02-14T10:17:55;9.30;1.00
5779;DHT22;2916;49.798;10.022;2024-02-14T10:20:23;9.30;1.00
5779;DHT22;2916;49.798;10.022;2024-02-14T10:22:50;9.50;1.00
5779;DHT22;2916;49.798;10.022;2024-02-14T10:25:17;9.40;1.00
5779;DHT22;2916;49.798;10.022;2024-02-14T10:27:45;9.40;1.00
5779;DHT22;2916;49.798;10.022;2024-02-14T10:30:14;9.50;1.00
5779;DHT22;2916;49.798;10.022;2024-02-14T10:32:42;9.70;1.00
5779;DHT22;2916;49.798;10.022;2024-02-14T10:35:13;10.00;1.00
5779;DHT22;2916;49.798;10.022;2024-02-14T10:37:40;10.00;1.00
5779;DHT22;2916;49.798;10.022;2024-02-14T10:40:08;10.10;1.00
5779;DHT22;2916;49.798;10.022;2024-02-14T10:42:37;10.20;1.00
5779;DHT22;2916;49.798;10.022;2024-02-14T10:45:04;10.10;1.00
5779;DHT22;2916;49.798;10.022;2024-02-14T10:47:34;10.00;1.00
5779;DHT22;2916;49.798;10.022;2024-02-14T10:50:04;10.00;1.00
5779;DHT22;2916;49.798;10.022;2024-02-14T10:52:33;10.10;1.00
5779;DHT22;2916;49.798;10.022;2024-02-14T10:55:03;10.20;1.00
5779;DHT22;2916;49.798;10.022;2024-02-14T10:57:30;10.20;1.00
5779;DHT22;2916;49.798;10.022;2024-02-14T11:00:02;10.20;1.00
5779;DHT22;2916;49.798;10.022;2024-02-14T11:02:30;10.20;1.00
5779;DHT22;2916;49.798;10.022;2024-02-14T11:04:58;10.30;1.00
5779;DHT22;2916;49.798;10.022;2024-02-14T11:07:28;10.30;1.00
5779;DHT22;2916;49.798;10.022;2024-02-14T11:10:04;10.30;1.00
5779;DHT22;2916;49.798;10.022;2024-02-14T11:12:33;10.20;1.00
5779;DHT22;2916;49.798;10.022;2024-02-14T11:15:09;10.20;1.00
5779;DHT22;2916;49.798;10.022;2024-02-14T11:17:36;10.30;1.00
5779;DHT22;2916;49.798;10.022;2024-02-14T11:20:13;10.30;1.00
5779;DHT22;2916;49.798;10.022;2024-02-14T11:22:52;10.30;1.00
5779;DHT22;2916;49.798;10.022;2024-02-14T11:25:22;10.40;1.00
5779;DHT22;2916;49.798;10.022;2024-02-14T11:27:50;10.40;1.00
5779;DHT22;2916;49.798;10.022;2024-02-14T11:30:29;10.60;1.00
5779;DHT22;2916;49.798;10.022;2024-02-14T11:33:09;10.50;1.00
5779;DHT22;2916;49.798;10.022;2024-02-14T11:35:39;10.50;1.00
5779;DHT22;2916;49.798;10.022;2024-02-14T11:38:06;10.40;1.00
5779;DHT22;2916;49.798;10.022;2024-02-14T11:40:34;10.60;1.00
5779;DHT22;2916;49.798;10.022;2024-02-14T11:43:01;10.50;1.00
5779;DHT22;2916;49.798;10.022;2024-02-14T11:45:30;10.60;1.00
5779;DHT22;2916;49.798;10.022;2024-02-14T11:47:57;10.70;1.00
5779;DHT22;2916;49.798;10.022;2024-02-14T11:50:24;10.70;1.00
5779;DHT22;2916;49.798;10.022;2024-02-14T11:52:51;10.60;1.00
5779;DHT22;2916;49.798;10.022;2024-02-14T11:55:27;10.60;1.00
5779;DHT22;2916;49.798;10.022;2024-02-14T11:57:54;10.70;1.00
5779;DHT22;2916;49.798;10.022;2024-02-14T12:00:22;10.60;1.00
5779;DHT22;2916;49.798;10.022;2024-02-14T12:02:51;10.60;1.00
5779;DHT22;2916;49.798;10.022;2024-02-14T12:05:18;10.50;1.00
5779;DHT22;2916;49.798;10.022;2024-02-14T12:07:46;10.40;1.00
5779;DHT22;2916;49.798;10.022;2024-02-14T12:10:13;10.40;1.00
5779;DHT22;2916;49.798;10.022;2024-02-14T12:12:40;10.30;1.00
5779;DHT22;2916;49.798;10.022;2024-02-14T12:15:10;10.20;1.00
5779;DHT22;2916;49.798;10.022;2024-02-14T12:17:36;10.20;13.40
5779;DHT22;2916;49.798;10.022;2024-02-14T12:20:10;10.20;25.10
5779;DHT22;2916;49.798;10.022;2024-02-14T12:22:38;10.10;28.30
5779;DHT22;2916;49.798;10.022;2024-02-14T12:25:06;10.10;47.20
5779;DHT22;2916;49.798;10.022;2024-02-14T12:27:36;10.10;63.80
5779;DHT22;2916;49.798;10.022;2024-02-14T12:30:04;10.10;68.70
5779;DHT22;2916;49.798;10.022;2024-02-14T12:32:31;10.20;72.70
5779;DHT22;2916;49.798;10.022;2024-02-14T12:34:59;10.20;60.80
5779;DHT22;2916;49.798;10.022;2024-02-14T12:37:27;10.30;62.50
5779;DHT22;2916;49.798;10.022;2024-02-14T12:39:54;10.40;61.80
5779;DHT22;2916;49.798;10.022;2024-02-14T12:42:22;10.40;59.60
5779;DHT22;2916;49.798;10.022;2024-02-14T12:44:54;10.60;60.00
5779;DHT22;2916;49.798;10.022;2024-02-14T12:47:21;10.50;52.80
5779;DHT22;2916;49.798;10.022;2024-02-14T12:49:49;10.50;38.50
5779;DHT22;2916;49.798;10.022;2024-02-14T12:52:16;10.60;35.60
5779;DHT22;2916;49.798;10.022;2024-02-14T12:54:45;10.50;33.10
5779;DHT22;2916;49.798;10.022;2024-02-14T12:57:12;10.50;30.50
5779;DHT22;2916;49.798;10.022;2024-02-14T12:59:39;10.50;35.60
5779;DHT22;2916;49.798;10.022;2024-02-14T13:02:07;10.50;20.50
5779;DHT22;2916;49.798;10.022;2024-02-14T13:04:34;10.60;20.40
5779;DHT22;2916;49.798;10.022;2024-02-14T13:07:01;10.50;18.90
5779;DHT22;2916;49.798;10.022;2024-02-14T13:09:28;10.50;21.70
5779;DHT22;2916;49.798;10.022;2024-02-14T13:11:56;10.60;24.30
5779;DHT22;2916;49.798;10.022;2024-02-14T13:14:23;10.50;17.10
5779;DHT22;2916;49.798;10.022;2024-02-14T13:16:51;10.50;22.50
5779;DHT22;2916;49.798;10.022;2024-02-14T13:19:18;10.40;18.00
5779;DHT22;2916;49.798;10.022;2024-02-14T13:21:45;10.40;19.70
5779;DHT22;2916;49.798;10.022;2024-02-14T13:24:13;10.50;19.30
5779;DHT22;2916;49.798;10.022;2024-02-14T13:26:40;10.50;16.00
5779;DHT22;2916;49.798;10.022;2024-02-14T13:29:08;10.30;13.50
5779;DHT22;2916;49.798;10.022;2024-02-14T13:31:35;10.30;18.70
5779;DHT22;2916;49.798;10.022;2024-02-14T13:34:02;10.30;18.10
5779;DHT22;2916;49.798;10.022;2024-02-14T13:36:30;10.30;14.80
5779;DHT22;2916;49.798;10.022;2024-02-14T13:38:58;10.30;12.80
5779;DHT22;2916;49.798;10.022;2024-02-14T13:41:25;10.30;13.00
5779;DHT22;2916;49.798;10.022;2024-02-14T13:43:52;10.30;9.60
5779;DHT22;2916;49.798;10.022;2024-02-14T13:46:21;10.50;8.60
5779;DHT22;2916;49.798;10.022;2024-02-14T13:48:48;10.60;1.00
5779;DHT22;2916;49.798;10.022;2024-02-14T13:51:15;10.70;1.00
5779;DHT22;2916;49.798;10.022;2024-02-14T13:53:42;10.70;1.00
5779;DHT22;2916;49.798;10.022;2024-02-14T13:56:10;10.70;1.00
5779;DHT22;2916;49.798;10.022;2024-02-14T13:58:36;10.70;1.00
5779;DHT22;2916;49.798;10.022;2024-02-14T14:01:05;10.70;1.00
5779;DHT22;2916;49.798;10.022;2024-02-14T14:03:34;10.70;1.00
5779;DHT22;2916;49.798;10.022;2024-02-14T14:06:02;10.70;1.00
5779;DHT22;2916;49.798;10.022;2024-02-14T14:08:31;10.60;1.00
5779;DHT22;2916;49.798;10.022;2024-02-14T14:10:57;10.60;1.00
5779;DHT22;2916;49.798;10.022;2024-02-14T14:13:24;10.50;1.00
5779;DHT22;2916;49.798;10.022;2024-02-14T14:15:54;10.50;1.00
5779;DHT22;2916;49.798;10.022;2024-02-14T14:18:22;10.50;1.00
5779;DHT22;2916;49.798;10.022;2024-02-14T14:20:51;10.30;2.60
5779;DHT22;2916;49.798;10.022;2024-02-14T14:23:18;10.40;1.00
5779;DHT22;2916;49.798;10.022;2024-02-14T14:25:45;10.40;3.30
5779;DHT22;2916;49.798;10.022;2024-02-14T14:28:12;10.30;4.10
5779;DHT22;2916;49.798;10.022;2024-02-14T14:30:40;10.30;4.50
5779;DHT22;2916;49.798;10.022;2024-02-14T14:33:07;10.40;7.20
5779;DHT22;2916;49.798;10.022;2024-02-14T14:35:34;10.40;11.10
5779;DHT22;2916;49.798;10.022;2024-02-14T14:38:03;10.30;11.00
5779;DHT22;2916;49.798;10.022;2024-02-14T14:40:30;10.30;12.00
5779;DHT22;2916;49.798;10.022;2024-02-14T14:42:57;10.20;13.70
5779;DHT22;2916;49.798;10.022;2024-02-14T14:45:24;10.20;15.40
5779;DHT22;2916;49.798;10.022;2024-02-14T14:47:53;10.20;15.00
5779;DHT22;2916;49.798;10.022;2024-02-14T14:50:21;10.30;15.10
5779;DHT22;2916;49.798;10.022;2024-02-14T14:52:50;10.30;15.00
5779;DHT22;2916;49.798;10.022;2024-02-14T14:55:19;10.30;15.10
5779;DHT22;2916;49.798;10.022;2024-02-14T14:57:46;10.30;13.50
5779;DHT22;2916;49.798;10.022;2024-02-14T15:00:13;10.30;14.60
5779;DHT22;2916;49.798;10.022;2024-02-14T15:02:41;10.30;14.60
5779;DHT22;2916;49.798;10.022;2024-02-14T15:05:09;10.30;14.90
5779;DHT22;2916;49.798;10.022;2024-02-14T15:07:36;10.30;14.50
5779;DHT22;2916;49.798;10.022;2024-02-14T15:10:04;10.30;15.90
5779;DHT22;2916;49.798;10.022;2024-02-14T15:12:32;10.40;15.60
5779;DHT22;2916;49.798;10.022;2024-02-14T15:15:01;10.40;15.80
5779;DHT22;2916;49.798;10.022;2024-02-14T15:17:28;10.40;16.40
5779;DHT22;2916;49.798;10.022;2024-02-14T15:19:55;10.30;15.50
5779;DHT22;2916;49.798;10.022;2024-02-14T15:22:22;10.40;16.70
5779;DHT22;2916;49.798;10.022;2024-02-14T15:24:50;10.30;18.20
5779;DHT22;2916;49.798;10.022;2024-02-14T15:27:18;10.30;19.50
5779;DHT22;2916;49.798;10.022;2024-02-14T15:29:51;10.30;22.40
5779;DHT22;2916;49.798;10.022;2024-02-14T15:32:34;10.40;22.50
5779;DHT22;2916;49.798;10.022;2024-02-14T15:35:19;10.40;23.80
5779;DHT22;2916;49.798;10.022;2024-02-14T15:37:46;10.30;25.10
5779;DHT22;2916;49.798;10.022;2024-02-14T15:40:14;10.30;25.20
5779;DHT22;2916;49.798;10.022;2024-02-14T15:42:42;10.40;27.10
5779;DHT22;2916;49.798;10.022;2024-02-14T15:45:10;10.30;27.40
5779;DHT22;2916;49.798;10.022;2024-02-14T15:47:42;10.30;29.90
5779;DHT22;2916;49.798;10.022;2024-02-14T15:50:09;10.40;31.40
5779;DHT22;2916;49.798;10.022;2024-02-14T15:52:37;10.30;36.20
5779;DHT22;2916;49.798;10.022;2024-02-14T15:55:04;10.30;38.50
5779;DHT22;2916;49.798;10.022;2024-02-14T15:57:33;10.30;42.50
5779;DHT22;2916;49.798;10.022;2024-02-14T16:00:01;10.30;43.60
5779;DHT22;2916;49.798;10.022;2024-02-14T16:02:32;10.30;46.50
5779;DHT22;2916;49.798;10.022;2024-02-14T16:05:00;10.30;46.00
5779;DHT22;2916;49.798;10.022;2024-02-14T16:07:28;10.30;48.30
5779;DHT22;2916;49.798;10.022;2024-02-14T16:09:55;10.30;48.90
5779;DHT22;2916;49.798;10.022;2024-02-14T16:12:22;10.30;51.40
5779;DHT22;2916;49.798;10.022;2024-02-14T16:14:49;10.30;52.30